createdAt,value
2023-01-26T00:02:05.595Z,46.30
2023-01-26T00:07:07.214Z,44.40
2023-01-26T00:12:08.811Z,47.17
2023-01-26T00:17:10.434Z,46.65
2023-01-26T00:22:12.101Z,47.60
2023-01-26T00:27:13.790Z,46.92
2023-01-26T00:32:15.462Z,46.78
2023-01-26T00:37:17.176Z,43.13
2023-01-26T00:42:18.823Z,44.53
2023-01-26T00:47:20.464Z,47.38
2023-01-26T00:52:22.180Z,47.15
2023-01-26T00:57:26.571Z,46.80
2023-01-26T01:02:28.265Z,48.15
2023-01-26T01:07:29.866Z,44.78
2023-01-26T01:12:31.655Z,45.95
2023-01-26T01:17:34.011Z,45.55
2023-01-26T01:22:37.517Z,42.78
2023-01-26T01:27:39.503Z,42.22
2023-01-26T01:32:41.212Z,39.85
2023-01-26T01:37:42.900Z,41.85
2023-01-26T01:42:49.106Z,41.55
2023-01-26T01:47:51.050Z,43.10
2023-01-26T01:52:55.508Z,43.78
2023-01-26T01:58:01.544Z,43.08
2023-01-26T02:03:15.630Z,42.47
2023-01-26T02:08:19.541Z,43.95
2023-01-26T02:13:23.853Z,42.97
2023-01-26T02:18:25.631Z,41.53
2023-01-26T02:23:42.886Z,41.63
2023-01-26T02:28:47.255Z,41.38
2023-01-26T02:33:49.184Z,42.70
2023-01-26T02:39:20.605Z,45.35
2023-01-26T02:44:22.856Z,48.53
2023-01-26T02:49:44.195Z,49.60
2023-01-26T02:55:04.571Z,49.78
2023-01-26T03:00:14.226Z,44.30
2023-01-26T03:05:16.419Z,45.17
2023-01-26T03:10:18.493Z,42.97
2023-01-26T03:15:42.929Z,40.40
2023-01-26T03:21:04.290Z,41.65
2023-01-26T03:26:27.111Z,42.45
2023-01-26T03:31:30.030Z,45.03
2023-01-26T03:36:31.763Z,42.95
2023-01-26T03:41:53.620Z,44.55
2023-01-26T03:47:13.963Z,45.53
2023-01-26T03:52:35.053Z,43.72
2023-01-26T03:57:37.879Z,46.10
2023-01-26T04:02:57.912Z,39.88
2023-01-26T04:08:23.808Z,38.90
2023-01-26T04:13:54.944Z,38.70
2023-01-26T04:19:21.729Z,39.00
2023-01-26T04:24:24.649Z,39.00
2023-01-26T04:29:30.321Z,38.05
2023-01-26T04:34:32.212Z,38.78
2023-01-26T04:39:34.096Z,40.80
2023-01-26T04:44:35.832Z,38.08
2023-01-26T04:49:38.952Z,40.55
2023-01-26T04:54:41.513Z,36.63
2023-01-26T04:59:43.725Z,40.45
2023-01-26T05:04:45.879Z,40.35
2023-01-26T05:09:49.223Z,37.15
2023-01-26T05:15:19.143Z,38.70
2023-01-26T05:20:31.836Z,37.63
2023-01-26T05:25:43.630Z,37.63
2023-01-26T05:30:48.220Z,38.55
2023-01-26T05:35:50.567Z,34.85
2023-01-26T05:40:52.773Z,36.85
2023-01-26T05:45:54.692Z,39.13
2023-01-26T05:50:58.078Z,39.47
2023-01-26T05:56:00.740Z,36.47
2023-01-26T06:01:05.504Z,39.35
2023-01-26T06:06:17.086Z,39.45
2023-01-26T06:11:33.258Z,42.78
2023-01-26T06:16:41.934Z,44.03
2023-01-26T06:21:44.520Z,44.75
2023-01-26T06:26:49.491Z,47.55
2023-01-26T06:31:53.211Z,45.20
2023-01-26T06:36:56.763Z,44.35
2023-01-26T06:42:04.153Z,44.30
2023-01-26T06:47:07.187Z,47.88
2023-01-26T06:52:31.607Z,49.60
2023-01-26T06:57:41.617Z,50.75
2023-01-26T07:03:06.618Z,49.75
2023-01-26T07:08:08.917Z,50.92
2023-01-26T07:13:10.625Z,47.13
2023-01-26T07:18:12.429Z,48.78
2023-01-26T07:23:14.130Z,48.55
2023-01-26T07:28:15.920Z,50.30
2023-01-26T07:33:18.298Z,50.45
2023-01-26T07:38:20.126Z,51.95
2023-01-26T07:43:21.997Z,48.72
2023-01-26T07:48:25.161Z,49.13
2023-01-26T07:53:29.324Z,50.63
2023-01-26T07:58:31.091Z,51.50
2023-01-26T08:03:32.781Z,49.53
2023-01-26T08:08:34.964Z,50.58
2023-01-26T08:13:36.936Z,52.53
2023-01-26T08:18:39.999Z,53.17
2023-01-26T08:23:42.027Z,50.80
2023-01-26T08:28:44.151Z,51.92
2023-01-26T08:33:48.355Z,52.13
2023-01-26T08:38:51.118Z,47.65
2023-01-26T08:43:53.269Z,43.35
2023-01-26T08:48:55.117Z,43.25
2023-01-26T08:53:56.930Z,41.97
2023-01-26T08:59:00.030Z,41.15
2023-01-26T09:04:03.297Z,41.90
2023-01-26T09:09:05.011Z,42.58
2023-01-26T09:14:06.907Z,41.38
2023-01-26T09:19:08.592Z,42.53
2023-01-26T09:24:11.223Z,44.75
2023-01-26T09:29:13.141Z,44.70
2023-01-26T09:34:14.843Z,41.97
2023-01-26T09:39:17.113Z,40.33
2023-01-26T09:44:23.897Z,41.58
2023-01-26T09:49:43.483Z,39.58
2023-01-26T09:54:49.896Z,38.13
2023-01-26T10:00:02.929Z,41.47
2023-01-26T10:06:01.353Z,38.72
2023-01-26T10:11:43.307Z,39.92
2023-01-26T10:16:49.375Z,41.53
2023-01-26T10:21:53.141Z,39.60
2023-01-26T10:26:58.257Z,39.88
2023-01-26T10:32:00.129Z,39.53
2023-01-26T10:37:29.921Z,37.15
2023-01-26T10:42:34.117Z,39.25
2023-01-26T10:47:36.064Z,40.00
2023-01-26T10:52:37.783Z,42.10
2023-01-26T10:57:42.160Z,42.10
2023-01-26T11:02:50.892Z,44.03
2023-01-26T11:07:58.789Z,43.20
2023-01-26T11:13:20.914Z,41.38
2023-01-26T11:18:31.951Z,42.33
2023-01-26T11:23:58.985Z,40.30
2023-01-26T11:34:38.415Z,37.15
2023-01-26T11:39:58.554Z,39.75
2023-01-26T11:45:03.344Z,39.45
2023-01-26T11:50:23.386Z,38.53
2023-01-26T11:55:29.135Z,35.40
2023-01-26T12:00:42.475Z,35.38
2023-01-26T12:05:49.350Z,35.78
2023-01-26T12:11:23.378Z,35.00
2023-01-26T12:16:36.507Z,34.03
2023-01-26T12:21:43.378Z,32.08
2023-01-26T12:26:49.368Z,31.88
2023-01-26T12:32:12.478Z,33.30
2023-01-26T12:37:47.558Z,33.58
2023-01-26T12:43:24.467Z,30.02
2023-01-26T12:48:36.386Z,29.05
2023-01-26T12:54:01.984Z,31.20
2023-01-26T12:59:47.949Z,26.65
2023-01-26T13:04:50.785Z,25.08
2023-01-26T13:10:20.650Z,26.17
2023-01-26T13:15:28.447Z,26.13
2023-01-26T13:20:49.834Z,26.05
2023-01-26T13:26:19.505Z,27.02
2023-01-26T13:31:33.308Z,26.48
2023-01-26T13:36:39.070Z,26.45
2023-01-26T13:41:47.833Z,26.25
2023-01-26T13:46:58.663Z,26.33
2023-01-26T13:52:00.332Z,28.20
2023-01-26T13:57:07.325Z,28.05
2023-01-26T14:02:22.830Z,25.50
2023-01-26T14:07:38.060Z,25.52
2023-01-26T14:12:46.780Z,24.98
2023-01-26T14:17:58.821Z,24.45
2023-01-26T14:23:18.756Z,26.73
2023-01-26T14:28:23.094Z,23.70
2023-01-26T14:33:25.183Z,23.48
2023-01-26T14:38:39.218Z,24.17
2023-01-26T14:43:40.975Z,23.10
2023-01-26T14:48:58.158Z,24.80
2023-01-26T14:59:04.410Z,24.73
2023-01-26T15:04:25.882Z,26.65
2023-01-26T15:09:28.609Z,24.70
2023-01-26T15:14:48.317Z,26.58
2023-01-26T15:19:52.245Z,23.25
2023-01-26T15:25:01.446Z,23.55
2023-01-26T15:30:04.807Z,21.85
2023-01-26T15:35:27.418Z,22.63
2023-01-26T15:40:30.550Z,20.58
2023-01-26T15:45:36.351Z,18.85
2023-01-26T15:50:38.284Z,19.55
2023-01-26T15:55:40.773Z,21.92
2023-01-26T16:00:42.565Z,20.20
2023-01-26T16:05:47.991Z,20.83
2023-01-26T16:10:50.036Z,24.02
2023-01-26T16:15:53.695Z,22.45
2023-01-26T16:20:55.768Z,23.52
2023-01-26T16:25:57.644Z,24.05
2023-01-26T16:31:02.345Z,26.23
2023-01-26T16:36:04.758Z,26.27
2023-01-26T16:41:12.783Z,28.45
2023-01-26T16:46:14.497Z,28.48
2023-01-26T16:51:23.886Z,27.80
2023-01-26T16:56:25.828Z,26.45
2023-01-26T17:01:33.595Z,26.65
2023-01-26T17:06:35.467Z,27.23
2023-01-26T17:11:37.401Z,23.30
2023-01-26T17:16:39.552Z,25.58
2023-01-26T17:21:41.317Z,26.65
2023-01-26T17:26:43.032Z,27.33
2023-01-26T17:31:44.993Z,22.88
2023-01-26T17:36:46.804Z,22.83
2023-01-26T17:41:48.526Z,24.00
2023-01-26T17:46:50.393Z,23.42
2023-01-26T17:51:52.439Z,23.70
2023-01-26T17:57:19.405Z,20.98
2023-01-26T18:02:21.278Z,24.40
2023-01-26T18:07:24.965Z,17.55
2023-01-26T18:12:26.832Z,16.90
2023-01-26T18:17:28.485Z,17.80
2023-01-26T18:22:30.603Z,16.33
2023-01-26T18:27:32.682Z,17.00
2023-01-26T18:32:34.376Z,17.90
2023-01-26T18:37:36.219Z,18.10
2023-01-26T18:42:37.946Z,17.67
2023-01-26T18:47:39.880Z,18.35
2023-01-26T18:52:42.046Z,21.08
2023-01-26T18:57:43.878Z,19.15
2023-01-26T19:02:45.574Z,22.13
2023-01-26T19:07:47.502Z,21.65
2023-01-26T19:12:52.024Z,25.55
2023-01-26T19:18:21.759Z,26.77
2023-01-26T19:23:23.421Z,31.65
2023-01-26T19:28:26.393Z,27.65
2023-01-26T19:33:32.037Z,26.63
2023-01-26T19:38:36.904Z,27.27
2023-01-26T19:43:38.554Z,27.65
2023-01-26T19:48:40.723Z,28.20
2023-01-26T19:53:46.347Z,27.02
2023-01-26T19:58:53.705Z,25.60
2023-01-26T20:09:07.838Z,24.33
2023-01-26T20:14:10.920Z,25.52
2023-01-26T20:19:13.849Z,26.48
2023-01-26T20:24:16.284Z,24.98
2023-01-26T20:29:19.850Z,24.00
2023-01-26T20:34:22.012Z,24.67
2023-01-26T20:39:26.713Z,25.92
2023-01-26T20:44:28.679Z,24.13
2023-01-26T20:49:30.427Z,26.33
2023-01-26T20:54:32.124Z,26.15
2023-01-26T20:59:33.986Z,26.40
2023-01-26T21:04:36.478Z,27.25
2023-01-26T21:09:38.204Z,28.02
2023-01-26T21:14:40.263Z,27.65
2023-01-26T21:19:42.009Z,27.45
2023-01-26T21:24:43.818Z,24.83
2023-01-26T21:29:45.513Z,23.25
2023-01-26T21:34:47.166Z,24.13
2023-01-26T21:39:48.859Z,25.58
2023-01-26T21:45:09.186Z,25.75
2023-01-26T21:50:11.435Z,25.23
2023-01-26T21:55:13.417Z,25.88
2023-01-26T22:00:15.469Z,25.90
2023-01-26T22:05:17.894Z,26.90
2023-01-26T22:10:20.418Z,24.50
2023-01-26T22:15:22.724Z,25.88
2023-01-26T22:20:24.725Z,27.17
2023-01-26T22:25:27.048Z,24.70
2023-01-26T22:30:28.839Z,26.63
2023-01-26T22:35:31.800Z,24.48
2023-01-26T22:40:33.439Z,26.48
2023-01-26T22:45:35.327Z,26.80
2023-01-26T22:50:37.019Z,25.67
2023-01-26T22:55:41.080Z,28.38
2023-01-26T23:00:42.879Z,28.02
2023-01-26T23:05:45.711Z,29.60
2023-01-26T23:10:48.314Z,29.25
2023-01-26T23:15:50.584Z,29.48
2023-01-26T23:20:52.331Z,29.00
2023-01-26T23:25:54.654Z,30.60
2023-01-26T23:30:57.682Z,27.83
2023-01-26T23:36:00.148Z,27.65
2023-01-26T23:41:02.155Z,27.45
2023-01-26T23:46:05.692Z,24.02
2023-01-26T23:51:09.913Z,22.92
2023-01-26T23:56:17.456Z,24.38
